Time;durP1;ratioP1;P1;durP2;ratioP2;P2;SDS_P1;SDS_P2;PMS_P1;PMS_P2;Temp;Humidity;BMP_temperature;BMP_pressure;BME280_temperature;BME280_humidity;BME280_pressure;Samples;Min_cycle;Max_cycle;Signal;HPM_P1;HPM_P2
2023/04/27 00:01:56;;;;;;;7.47;3.93;;;;;;;;;;4985211;28;20227;-85
2023/04/27 00:04:23;;;;;;;4.60;4.20;;;;;;;;;;4982439;28;20255;-85
2023/04/27 00:06:51;;;;;;;6.40;4.33;;;;;;;;;;4993560;28;20234;-85
2023/04/27 00:09:18;;;;;;;7.67;4.10;;;;;;;;;;5011395;28;20709;-85
2023/04/27 00:11:46;;;;;;;5.83;3.80;;;;;;;;;;5008851;28;20250;-85
2023/04/27 00:14:14;;;;;;;5.73;4.17;;;;;;;;;;5010546;28;20202;-85
2023/04/27 00:16:41;;;;;;;4.30;3.60;;;;;;;;;;5008704;28;20242;-85
2023/04/27 00:19:08;;;;;;;9.17;4.17;;;;;;;;;;5006046;28;20626;-85
2023/04/27 00:21:37;;;;;;;3.77;3.30;;;;;;;;;;5011394;28;20314;-85
2023/04/27 00:24:05;;;;;;;7.00;4.00;;;;;;;;;;5004355;28;20273;-85
2023/04/27 00:26:32;;;;;;;5.33;3.60;;;;;;;;;;5005141;28;20720;-85
2023/04/27 00:29:00;;;;;;;4.03;3.50;;;;;;;;;;5004121;28;20234;-85
2023/04/27 00:31:27;;;;;;;4.20;3.80;;;;;;;;;;5012597;28;20227;-84
2023/04/27 00:33:54;;;;;;;4.93;3.70;;;;;;;;;;5012256;28;20208;-84
2023/04/27 00:36:21;;;;;;;4.77;4.20;;;;;;;;;;4998571;28;20269;-85
2023/04/27 00:38:48;;;;;;;8.73;4.23;;;;;;;;;;4988579;28;20224;-85
2023/04/27 00:41:15;;;;;;;4.97;3.83;;;;;;;;;;4983199;28;20235;-84
2023/04/27 00:43:43;;;;;;;9.07;4.50;;;;;;;;;;4989407;28;20234;-85
2023/04/27 00:46:12;;;;;;;6.20;4.57;;;;;;;;;;4986467;28;20247;-84
2023/04/27 00:48:39;;;;;;;8.43;4.50;;;;;;;;;;4983357;28;20234;-85
2023/04/27 00:51:07;;;;;;;8.20;4.60;;;;;;;;;;4997918;28;20258;-84
2023/04/27 00:53:34;;;;;;;5.50;4.33;;;;;;;;;;5012509;28;20222;-84
2023/04/27 00:56:02;;;;;;;5.17;4.43;;;;;;;;;;5011665;28;20231;-84
2023/04/27 00:58:29;;;;;;;11.00;4.47;;;;;;;;;;5011840;28;20735;-84
2023/04/27 01:00:56;;;;;;;5.10;4.60;;;;;;;;;;5006359;28;20701;-85
2023/04/27 01:03:25;;;;;;;7.27;4.40;;;;;;;;;;5008156;28;20727;-84
2023/04/27 01:05:52;;;;;;;5.00;4.23;;;;;;;;;;5001762;28;20234;-84
2023/04/27 01:08:19;;;;;;;5.70;4.47;;;;;;;;;;5013642;28;20653;-84
2023/04/27 01:10:48;;;;;;;6.87;4.73;;;;;;;;;;5010186;28;20628;-84
2023/04/27 01:13:15;;;;;;;7.47;4.63;;;;;;;;;;5011954;28;20253;-84
2023/04/27 01:15:42;;;;;;;6.37;4.57;;;;;;;;;;5003057;28;20250;-85
2023/04/27 01:18:09;;;;;;;4.03;3.73;;;;;;;;;;5009104;28;20246;-85
2023/04/27 01:20:37;;;;;;;5.00;4.07;;;;;;;;;;5010669;28;20234;-85
2023/04/27 01:23:05;;;;;;;4.53;4.13;;;;;;;;;;5003517;28;20234;-84
2023/04/27 01:25:33;;;;;;;6.67;3.73;;;;;;;;;;5011158;28;20239;-84
2023/04/27 01:28:00;;;;;;;4.67;4.13;;;;;;;;;;5002972;28;20227;-84
2023/04/27 01:30:28;;;;;;;6.07;4.17;;;;;;;;;;5010949;28;20239;-84
2023/04/27 01:32:56;;;;;;;5.90;4.00;;;;;;;;;;5006302;28;20286;-84
2023/04/27 01:35:23;;;;;;;5.83;4.47;;;;;;;;;;5012765;28;20239;-84
2023/04/27 01:37:50;;;;;;;5.13;4.30;;;;;;;;;;5013650;28;20310;-84
2023/04/27 01:40:17;;;;;;;5.80;3.93;;;;;;;;;;5014778;28;20238;-84
2023/04/27 01:42:45;;;;;;;5.37;4.33;;;;;;;;;;5009307;28;20203;-84
2023/04/27 01:45:12;;;;;;;4.63;4.00;;;;;;;;;;5014671;28;20257;-84
2023/04/27 01:47:39;;;;;;;4.47;3.63;;;;;;;;;;5013377;28;20672;-84
2023/04/27 01:50:07;;;;;;;5.60;3.93;;;;;;;;;;5008116;28;20590;-84
2023/04/27 01:52:35;;;;;;;4.37;3.80;;;;;;;;;;5014878;28;20226;-85
2023/04/27 01:55:02;;;;;;;5.17;3.83;;;;;;;;;;5014523;28;20192;-84
2023/04/27 01:57:29;;;;;;;3.90;3.33;;;;;;;;;;5015017;28;20233;-85
2023/04/27 01:59:58;;;;;;;5.13;4.10;;;;;;;;;;5010381;28;20231;-84
2023/04/27 02:02:25;;;;;;;5.97;4.03;;;;;;;;;;5010693;28;20218;-84
2023/04/27 02:04:52;;;;;;;7.13;4.10;;;;;;;;;;5011143;28;20220;-84
2023/04/27 02:07:19;;;;;;;4.77;3.67;;;;;;;;;;5009850;28;20207;-84
2023/04/27 02:09:46;;;;;;;4.33;3.70;;;;;;;;;;5014260;28;20317;-84
2023/04/27 02:12:13;;;;;;;4.83;3.97;;;;;;;;;;5014565;28;20203;-84
2023/04/27 02:14:40;;;;;;;4.70;3.67;;;;;;;;;;5014438;28;20213;-85
2023/04/27 02:17:09;;;;;;;5.90;4.47;;;;;;;;;;5009039;28;20571;-84
2023/04/27 02:19:36;;;;;;;6.07;4.13;;;;;;;;;;5006002;28;20226;-84
2023/04/27 02:22:03;;;;;;;8.10;4.20;;;;;;;;;;5013418;28;20276;-84
2023/04/27 02:24:30;;;;;;;5.10;3.90;;;;;;;;;;5011091;28;20292;-84
2023/04/27 02:26:58;;;;;;;5.47;3.90;;;;;;;;;;5005763;28;20237;-84
2023/04/27 02:29:25;;;;;;;4.40;4.00;;;;;;;;;;5011777;28;20230;-84
2023/04/27 02:31:52;;;;;;;5.47;4.17;;;;;;;;;;5013170;28;20284;-84
2023/04/27 02:34:20;;;;;;;4.53;3.63;;;;;;;;;;5013955;28;20207;-83
2023/04/27 02:36:47;;;;;;;4.70;4.00;;;;;;;;;;5005212;28;20235;-83
2023/04/27 02:39:15;;;;;;;8.33;3.97;;;;;;;;;;5007676;28;20238;-84
2023/04/27 02:41:42;;;;;;;7.00;3.60;;;;;;;;;;5011005;28;20227;-84
2023/04/27 02:44:09;;;;;;;7.97;4.20;;;;;;;;;;5006310;28;20229;-84
2023/04/27 02:46:36;;;;;;;5.40;4.40;;;;;;;;;;5010269;28;20602;-84
2023/04/27 02:49:03;;;;;;;5.53;4.17;;;;;;;;;;5007203;28;20222;-84
2023/04/27 02:51:31;;;;;;;7.40;4.50;;;;;;;;;;5013545;28;20230;-84
2023/04/27 02:53:58;;;;;;;6.07;4.10;;;;;;;;;;5011469;28;20202;-84
2023/04/27 02:56:25;;;;;;;4.70;3.97;;;;;;;;;;5006463;28;20242;-84
2023/04/27 02:58:52;;;;;;;6.17;3.90;;;;;;;;;;5012593;28;20241;-84
2023/04/27 03:01:20;;;;;;;6.17;4.27;;;;;;;;;;5012722;28;20633;-84
2023/04/27 03:03:47;;;;;;;7.77;4.47;;;;;;;;;;5005483;28;20711;-84
2023/04/27 03:06:14;;;;;;;7.00;3.90;;;;;;;;;;5012822;28;20239;-83
2023/04/27 03:08:43;;;;;;;5.80;3.80;;;;;;;;;;5013629;28;20241;-84
2023/04/27 03:11:11;;;;;;;4.77;3.90;;;;;;;;;;5012899;28;20233;-83
2023/04/27 03:13:41;;;;;;;4.77;3.80;;;;;;;;;;5013598;28;20239;-83
2023/04/27 03:16:09;;;;;;;4.40;4.00;;;;;;;;;;5004793;28;20260;-84
2023/04/27 03:18:36;;;;;;;5.63;3.70;;;;;;;;;;5013467;28;20314;-83
2023/04/27 03:21:07;;;;;;;4.83;3.80;;;;;;;;;;5008773;28;20710;-84
2023/04/27 03:23:34;;;;;;;9.50;3.80;;;;;;;;;;5001895;28;20228;-84
2023/04/27 03:26:06;;;;;;;6.90;3.97;;;;;;;;;;5004779;28;20243;-84
2023/04/27 03:28:33;;;;;;;5.00;3.73;;;;;;;;;;5013298;28;20230;-84
2023/04/27 03:31:00;;;;;;;7.20;4.13;;;;;;;;;;5012727;28;20275;-84
2023/04/27 03:33:28;;;;;;;5.67;4.10;;;;;;;;;;5006121;28;20209;-84
2023/04/27 03:35:55;;;;;;;4.37;3.97;;;;;;;;;;5011777;28;20246;-83
2023/04/27 03:38:23;;;;;;;4.33;3.57;;;;;;;;;;5013301;28;20300;-84
2023/04/27 03:40:50;;;;;;;6.43;4.10;;;;;;;;;;5012595;28;20234;-83
2023/04/27 03:43:18;;;;;;;6.63;4.27;;;;;;;;;;5012934;28;20701;-84
2023/04/27 03:45:45;;;;;;;5.40;4.30;;;;;;;;;;5004235;28;20416;-83
2023/04/27 03:48:12;;;;;;;5.40;4.30;;;;;;;;;;5013138;28;20223;-83
2023/04/27 03:50:39;;;;;;;4.77;4.27;;;;;;;;;;5012393;28;20240;-83
2023/04/27 03:53:06;;;;;;;8.67;3.90;;;;;;;;;;5013479;28;20203;-84
2023/04/27 03:55:33;;;;;;;3.83;3.53;;;;;;;;;;5012304;28;20236;-83
2023/04/27 03:58:00;;;;;;;6.03;4.07;;;;;;;;;;5012269;28;20233;-84
2023/04/27 04:00:30;;;;;;;4.13;3.73;;;;;;;;;;5012337;28;20236;-84
2023/04/27 04:02:57;;;;;;;5.10;3.90;;;;;;;;;;5012342;28;20212;-83
2023/04/27 04:05:24;;;;;;;5.70;3.73;;;;;;;;;;5012130;28;20235;-84
2023/04/27 04:07:51;;;;;;;5.67;4.43;;;;;;;;;;5004347;28;20206;-83
2023/04/27 04:10:19;;;;;;;4.37;3.97;;;;;;;;;;5012262;28;20248;-83
2023/04/27 04:12:46;;;;;;;5.83;4.13;;;;;;;;;;5004171;28;20218;-84
2023/04/27 04:15:13;;;;;;;4.73;4.23;;;;;;;;;;5002765;28;20722;-84
2023/04/27 04:17:41;;;;;;;4.10;3.70;;;;;;;;;;5009263;28;20204;-84
2023/04/27 04:20:09;;;;;;;4.17;3.83;;;;;;;;;;5008185;28;20232;-84
2023/04/27 04:22:36;;;;;;;6.00;4.57;;;;;;;;;;5003005;28;20212;-84
2023/04/27 04:25:04;;;;;;;6.07;4.30;;;;;;;;;;4995782;28;20239;-83
2023/04/27 04:27:32;;;;;;;5.63;4.07;;;;;;;;;;5011873;28;20199;-84
2023/04/27 04:29:59;;;;;;;4.83;4.43;;;;;;;;;;5009969;28;20600;-84
2023/04/27 04:32:28;;;;;;;8.40;4.73;;;;;;;;;;5011700;28;20236;-83
2023/04/27 04:34:57;;;;;;;9.20;4.93;;;;;;;;;;5015818;28;20261;-82
2023/04/27 04:37:25;;;;;;;5.67;4.87;;;;;;;;;;4990966;28;20200;-83
2023/04/27 04:39:52;;;;;;;8.23;4.53;;;;;;;;;;4991415;28;20232;-82
2023/04/27 04:42:19;;;;;;;8.87;4.87;;;;;;;;;;5012121;28;20211;-82
2023/04/27 04:44:46;;;;;;;8.97;5.30;;;;;;;;;;5011537;28;20239;-83
2023/04/27 04:47:13;;;;;;;10.23;4.77;;;;;;;;;;5012131;28;20731;-82
2023/04/27 04:49:40;;;;;;;6.13;4.70;;;;;;;;;;5011506;28;20231;-81
2023/04/27 04:52:09;;;;;;;9.00;5.00;;;;;;;;;;5011351;28;20793;-81
2023/04/27 04:54:36;;;;;;;7.73;5.43;;;;;;;;;;5011791;28;20198;-82
2023/04/27 04:57:03;;;;;;;9.17;5.70;;;;;;;;;;5011209;28;20231;-82
2023/04/27 04:59:33;;;;;;;6.83;5.30;;;;;;;;;;5011597;28;20246;-82
2023/04/27 05:02:00;;;;;;;8.60;5.00;;;;;;;;;;5008177;28;21058;-83
2023/04/27 05:04:27;;;;;;;10.27;4.97;;;;;;;;;;4993223;28;20236;-83
2023/04/27 05:06:54;;;;;;;9.60;5.03;;;;;;;;;;5013551;28;20235;-83
2023/04/27 05:09:23;;;;;;;10.63;5.63;;;;;;;;;;5016233;28;20223;-83
2023/04/27 05:11:50;;;;;;;10.23;5.20;;;;;;;;;;5015108;28;20232;-83
2023/04/27 05:14:17;;;;;;;10.40;6.10;;;;;;;;;;5015916;28;20199;-83
2023/04/27 05:16:45;;;;;;;9.57;5.57;;;;;;;;;;5014856;28;20713;-83
2023/04/27 05:19:17;;;;;;;8.13;5.30;;;;;;;;;;5015479;28;20220;-83
2023/04/27 05:21:44;;;;;;;8.90;5.97;;;;;;;;;;5014600;28;20254;-83
2023/04/27 05:24:11;;;;;;;7.83;5.27;;;;;;;;;;5015484;28;20283;-83
2023/04/27 05:26:40;;;;;;;8.23;5.77;;;;;;;;;;5014911;28;20309;-82
2023/04/27 05:29:07;;;;;;;6.60;5.17;;;;;;;;;;5007590;28;20223;-82
2023/04/27 05:31:34;;;;;;;10.17;5.87;;;;;;;;;;5014689;28;20233;-82
2023/04/27 05:34:01;;;;;;;9.07;5.90;;;;;;;;;;5015529;28;20208;-82
2023/04/27 05:36:28;;;;;;;9.93;6.07;;;;;;;;;;5015039;28;20258;-82
2023/04/27 05:38:55;;;;;;;6.97;5.47;;;;;;;;;;5015129;28;20220;-82
2023/04/27 05:41:23;;;;;;;10.23;6.00;;;;;;;;;;5008194;28;20229;-83
2023/04/27 05:43:52;;;;;;;10.77;6.27;;;;;;;;;;5014859;28;20581;-82
2023/04/27 05:46:19;;;;;;;7.77;5.37;;;;;;;;;;5014321;28;20234;-81
2023/04/27 05:48:46;;;;;;;8.27;5.80;;;;;;;;;;5014926;28;20325;-83
2023/04/27 05:51:13;;;;;;;7.00;5.90;;;;;;;;;;5013602;28;20231;-83
2023/04/27 05:53:41;;;;;;;9.03;6.13;;;;;;;;;;5006439;28;20549;-83
2023/04/27 05:56:10;;;;;;;6.87;6.17;;;;;;;;;;4997895;28;20246;-83
2023/04/27 05:58:37;;;;;;;12.50;6.30;;;;;;;;;;5015739;28;20292;-83
2023/04/27 06:01:06;;;;;;;15.20;6.20;;;;;;;;;;5015607;28;20326;-84
2023/04/27 06:03:33;;;;;;;11.03;5.80;;;;;;;;;;5016510;28;20249;-84
2023/04/27 06:06:01;;;;;;;10.13;5.70;;;;;;;;;;5011297;28;20248;-82
2023/04/27 06:08:28;;;;;;;6.00;5.07;;;;;;;;;;5013907;28;20229;-82
2023/04/27 06:10:55;;;;;;;5.60;5.00;;;;;;;;;;4996938;28;20709;-82
2023/04/27 06:13:22;;;;;;;9.33;4.83;;;;;;;;;;5013667;28;20719;-82
2023/04/27 06:15:50;;;;;;;7.17;4.70;;;;;;;;;;5005487;28;20238;-81
2023/04/27 06:18:18;;;;;;;7.80;5.30;;;;;;;;;;5013470;28;20314;-82
2023/04/27 06:20:45;;;;;;;6.20;4.73;;;;;;;;;;5012886;28;20233;-82
2023/04/27 06:23:12;;;;;;;7.73;5.20;;;;;;;;;;5013594;28;20211;-81
2023/04/27 06:25:40;;;;;;;8.47;5.37;;;;;;;;;;5013083;28;20238;-82
2023/04/27 06:28:07;;;;;;;6.17;4.77;;;;;;;;;;5013387;28;20732;-82
2023/04/27 06:30:34;;;;;;;8.90;4.73;;;;;;;;;;5013375;28;20232;-82
2023/04/27 06:33:01;;;;;;;5.87;4.53;;;;;;;;;;5013207;28;20215;-82
2023/04/27 06:35:30;;;;;;;4.90;4.40;;;;;;;;;;5013355;28;20235;-81
2023/04/27 06:37:57;;;;;;;5.23;4.50;;;;;;;;;;5013160;28;20219;-81
2023/04/27 06:40:25;;;;;;;4.60;3.83;;;;;;;;;;5016134;28;20241;-89
2023/04/27 06:42:52;;;;;;;7.23;4.67;;;;;;;;;;5016396;28;20207;-84
2023/04/27 06:45:19;;;;;;;7.70;4.20;;;;;;;;;;5009155;28;20243;-85
2023/04/27 06:47:46;;;;;;;4.30;3.63;;;;;;;;;;4994545;28;20578;-84
2023/04/27 06:50:14;;;;;;;5.27;3.33;;;;;;;;;;4983266;28;20232;-82
2023/04/27 06:52:42;;;;;;;6.97;3.60;;;;;;;;;;4974480;28;20690;-83
2023/04/27 06:55:10;;;;;;;7.07;3.00;;;;;;;;;;4981979;28;20237;-82
2023/04/27 06:57:37;;;;;;;3.20;2.90;;;;;;;;;;4974163;28;20212;-82
2023/04/27 07:00:04;;;;;;;3.83;3.40;;;;;;;;;;4978764;28;20242;-82
2023/04/27 07:02:31;;;;;;;6.17;2.80;;;;;;;;;;5012951;28;20211;-82
2023/04/27 07:04:58;;;;;;;5.30;3.10;;;;;;;;;;5013110;28;20227;-84
2023/04/27 07:07:25;;;;;;;2.73;2.53;;;;;;;;;;5005293;28;20215;-86
2023/04/27 07:09:54;;;;;;;9.30;3.27;;;;;;;;;;5013599;28;20258;-84
2023/04/27 07:12:21;;;;;;;4.47;2.80;;;;;;;;;;5013500;28;20207;-85
2023/04/27 07:14:49;;;;;;;5.53;2.90;;;;;;;;;;5012704;28;20215;-84
2023/04/27 07:17:16;;;;;;;4.93;3.00;;;;;;;;;;5013384;28;20208;-85
2023/04/27 07:19:43;;;;;;;3.97;2.60;;;;;;;;;;5012307;28;20223;-84
2023/04/27 07:22:10;;;;;;;3.53;2.50;;;;;;;;;;5012598;28;20257;-84
2023/04/27 07:24:37;;;;;;;3.90;2.75;;;;;;;;;;5005009;28;20221;-84
2023/04/27 07:27:06;;;;;;;5.13;2.83;;;;;;;;;;5012525;28;20460;-84
2023/04/27 07:29:33;;;;;;;4.50;2.73;;;;;;;;;;5013407;28;20232;-85
2023/04/27 07:32:00;;;;;;;4.80;2.67;;;;;;;;;;5013684;28;20230;-85
2023/04/27 07:34:27;;;;;;;5.43;2.87;;;;;;;;;;5013697;28;20241;-85
2023/04/27 07:36:54;;;;;;;4.97;2.23;;;;;;;;;;5013812;28;20655;-85
2023/04/27 07:39:21;;;;;;;2.63;2.43;;;;;;;;;;5014725;28;20230;-78
2023/04/27 07:41:48;;;;;;;3.27;2.87;;;;;;;;;;5011704;28;20293;-84
2023/04/27 07:44:18;;;;;;;3.33;2.30;;;;;;;;;;5011731;28;20208;-79
2023/04/27 07:46:46;;;;;;;4.33;2.57;;;;;;;;;;5011296;28;20285;-81
2023/04/27 07:49:13;;;;;;;6.77;2.77;;;;;;;;;;5012803;28;20223;-85
2023/04/27 07:51:40;;;;;;;5.13;2.60;;;;;;;;;;5014119;28;20697;-85
2023/04/27 07:54:07;;;;;;;3.43;2.70;;;;;;;;;;5013119;28;20207;-85
2023/04/27 07:56:34;;;;;;;8.87;2.97;;;;;;;;;;5014044;28;20238;-85
2023/04/27 07:59:01;;;;;;;4.77;2.50;;;;;;;;;;5014347;28;20242;-85
2023/04/27 08:01:30;;;;;;;4.03;2.73;;;;;;;;;;5014363;28;20235;-85
2023/04/27 08:03:57;;;;;;;3.60;2.20;;;;;;;;;;5014448;28;20203;-85
2023/04/27 08:06:24;;;;;;;4.97;2.70;;;;;;;;;;5014738;28;20242;-86
2023/04/27 08:08:51;;;;;;;2.53;2.33;;;;;;;;;;5014349;28;20227;-85
2023/04/27 08:11:18;;;;;;;2.70;2.40;;;;;;;;;;5014750;28;20235;-85
2023/04/27 08:13:45;;;;;;;3.83;2.77;;;;;;;;;;5015495;28;20234;-86
2023/04/27 08:16:12;;;;;;;5.67;2.40;;;;;;;;;;5013931;28;20223;-85
2023/04/27 08:18:41;;;;;;;6.63;2.43;;;;;;;;;;5013826;28;20227;-85
2023/04/27 08:21:08;;;;;;;2.87;2.60;;;;;;;;;;5013213;28;20246;-87
2023/04/27 08:23:36;;;;;;;5.63;2.50;;;;;;;;;;5015110;28;20207;-85
2023/04/27 08:26:03;;;;;;;6.77;2.50;;;;;;;;;;5013832;28;20298;-85
2023/04/27 08:28:30;;;;;;;3.47;2.30;;;;;;;;;;5015491;28;20607;-86
2023/04/27 08:30:58;;;;;;;4.50;2.23;;;;;;;;;;5014604;28;20254;-85
2023/04/27 08:33:25;;;;;;;3.90;2.63;;;;;;;;;;5014871;28;20745;-85
2023/04/27 08:35:55;;;;;;;3.73;2.40;;;;;;;;;;5012704;28;20230;-84
2023/04/27 08:38:22;;;;;;;3.87;2.60;;;;;;;;;;5012077;28;20230;-85
2023/04/27 08:40:49;;;;;;;2.70;2.50;;;;;;;;;;5013845;28;20721;-85
2023/04/27 08:43:16;;;;;;;3.43;2.53;;;;;;;;;;5015853;28;20204;-86
2023/04/27 08:45:48;;;;;;;5.30;2.50;;;;;;;;;;5014620;28;20231;-86
2023/04/27 08:48:15;;;;;;;4.47;2.40;;;;;;;;;;5014496;28;20219;-85
2023/04/27 08:50:44;;;;;;;4.70;2.40;;;;;;;;;;5012505;28;20315;-85
2023/04/27 08:53:18;;;;;;;8.00;3.27;;;;;;;;;;5012745;28;20234;-85
2023/04/27 08:55:45;;;;;;;4.43;2.30;;;;;;;;;;5014074;28;20708;-85
2023/04/27 08:58:12;;;;;;;2.93;2.50;;;;;;;;;;5015067;28;20235;-85
2023/04/27 09:00:40;;;;;;;4.17;2.50;;;;;;;;;;5015082;28;20234;-85
2023/04/27 09:03:07;;;;;;;3.70;2.60;;;;;;;;;;5015792;28;20215;-86
2023/04/27 09:08:04;;;;;;;4.13;2.58;;;;;;;;;;5065743;23;20234;-86
2023/04/27 09:10:43;;;;;;;4.65;2.42;;;;;;;;;;5057937;28;20592;-87
2023/04/27 09:13:10;;;;;;;5.40;2.47;;;;;;;;;;5073897;28;20228;-87
2023/04/27 09:15:42;;;;;;;4.38;2.60;;;;;;;;;;5077521;28;20229;-86
2023/04/27 09:18:12;;;;;;;5.65;2.50;;;;;;;;;;5071558;28;20226;-86
2023/04/27 09:20:43;;;;;;;2.65;2.33;;;;;;;;;;5063054;28;20233;-86
2023/04/27 09:23:10;;;;;;;3.60;2.60;;;;;;;;;;5051284;28;20217;-86
2023/04/27 09:25:38;;;;;;;3.55;2.50;;;;;;;;;;5051405;28;20233;-87
2023/04/27 09:28:05;;;;;;;6.53;2.70;;;;;;;;;;5052114;28;20232;-87
2023/04/27 09:30:32;;;;;;;3.15;2.50;;;;;;;;;;5051385;28;20234;-87
2023/04/27 09:33:00;;;;;;;3.22;2.50;;;;;;;;;;5051320;28;20210;-86
2023/04/27 09:35:29;;;;;;;3.50;2.50;;;;;;;;;;5050454;28;20234;-87
2023/04/27 09:37:56;;;;;;;3.78;2.30;;;;;;;;;;5050509;28;20257;-87
2023/04/27 09:40:26;;;;;;;6.18;2.50;;;;;;;;;;5041809;28;20241;-86
2023/04/27 09:42:55;;;;;;;3.85;2.40;;;;;;;;;;5050845;28;20220;-87
2023/04/27 09:45:23;;;;;;;3.33;2.47;;;;;;;;;;5042678;28;20234;-87
2023/04/27 09:47:50;;;;;;;5.72;2.70;;;;;;;;;;5051598;28;20238;-87
2023/04/27 09:50:17;;;;;;;4.10;2.63;;;;;;;;;;5050856;28;20700;-87
2023/04/27 09:52:46;;;;;;;4.38;2.60;;;;;;;;;;5052094;28;20711;-87
2023/04/27 09:55:15;;;;;;;4.28;2.42;;;;;;;;;;5053577;28;20707;-87
2023/04/27 09:57:49;;;;;;;5.05;2.83;;;;;;;;;;5054317;28;20233;-87
2023/04/27 10:00:27;;;;;;;2.92;2.38;;;;;;;;;;5052865;28;20313;-87
2023/04/27 10:03:00;;;;;;;3.67;2.50;;;;;;;;;;5054004;28;20234;-87
2023/04/27 10:05:34;;;;;;;4.32;3.10;;;;;;;;;;5039185;28;20230;-87
2023/04/27 10:08:03;;;;;;;4.15;2.50;;;;;;;;;;5037644;28;20298;-87
2023/04/27 10:10:31;;;;;;;3.15;2.60;;;;;;;;;;5053702;28;20316;-87
2023/04/27 10:12:58;;;;;;;3.70;2.78;;;;;;;;;;5045289;28;20241;-87
2023/04/27 10:15:30;;;;;;;7.25;2.92;;;;;;;;;;5045209;28;20237;-87
2023/04/27 10:18:04;;;;;;;3.45;2.88;;;;;;;;;;5053862;28;20712;-87
2023/04/27 10:20:31;;;;;;;4.32;3.17;;;;;;;;;;5052862;28;20240;-87
2023/04/27 10:22:59;;;;;;;5.60;3.40;;;;;;;;;;5053395;28;20210;-87
2023/04/27 10:25:27;;;;;;;6.97;3.35;;;;;;;;;;5045159;28;20225;-87
2023/04/27 10:27:54;;;;;;;6.40;2.97;;;;;;;;;;5053551;28;20308;-87
2023/04/27 10:30:23;;;;;;;4.55;3.45;;;;;;;;;;5052870;28;20238;-87
2023/04/27 10:32:55;;;;;;;4.78;2.90;;;;;;;;;;5053480;28;20726;-87
2023/04/27 10:35:23;;;;;;;5.47;2.97;;;;;;;;;;5052932;28;20226;-87
2023/04/27 10:37:51;;;;;;;4.55;2.45;;;;;;;;;;5053216;28;20226;-86
2023/04/27 10:40:18;;;;;;;4.63;2.85;;;;;;;;;;5052574;28;20241;-87
2023/04/27 10:42:48;;;;;;;4.07;2.95;;;;;;;;;;5052872;28;20217;-87
2023/04/27 10:45:15;;;;;;;3.90;3.15;;;;;;;;;;5052124;28;20317;-87
2023/04/27 10:47:44;;;;;;;4.47;3.03;;;;;;;;;;5052927;28;20241;-87
2023/04/27 10:50:14;;;;;;;2.75;2.28;;;;;;;;;;5052204;28;20253;-88
2023/04/27 10:52:41;;;;;;;4.97;3.08;;;;;;;;;;5053231;28;20210;-87
2023/04/27 10:55:19;;;;;;;5.22;3.20;;;;;;;;;;5052740;28;20233;-87
2023/04/27 10:57:46;;;;;;;6.07;3.00;;;;;;;;;;5053108;28;20661;-88
2023/04/27 11:00:16;;;;;;;4.25;2.75;;;;;;;;;;5042226;28;20226;-87
2023/04/27 11:02:43;;;;;;;3.90;2.90;;;;;;;;;;5041194;28;20218;-87
2023/04/27 11:05:17;;;;;;;5.13;3.10;;;;;;;;;;5050269;28;20699;-87
2023/04/27 11:07:45;;;;;;;5.80;3.33;;;;;;;;;;5053099;28;20221;-87
2023/04/27 11:10:15;;;;;;;4.40;2.67;;;;;;;;;;5043840;28;20231;-89
2023/04/27 11:12:42;;;;;;;5.28;3.10;;;;;;;;;;5038119;28;20243;-88
2023/04/27 11:15:10;;;;;;;3.75;2.88;;;;;;;;;;5049533;28;20236;-86
2023/04/27 11:17:37;;;;;;;5.53;3.05;;;;;;;;;;5052636;28;20253;-86
2023/04/27 11:20:06;;;;;;;2.78;2.40;;;;;;;;;;5041520;28;20241;-83
2023/04/27 11:22:34;;;;;;;8.05;3.13;;;;;;;;;;5046565;28;20701;-84
2023/04/27 11:25:02;;;;;;;3.03;2.72;;;;;;;;;;5051844;28;20702;-86
2023/04/27 11:27:37;;;;;;;3.55;2.53;;;;;;;;;;5037749;28;20226;-85
2023/04/27 11:30:06;;;;;;;4.35;3.10;;;;;;;;;;5038183;28;20253;-85
2023/04/27 11:32:33;;;;;;;5.43;3.03;;;;;;;;;;5052341;28;20296;-84
2023/04/27 11:35:00;;;;;;;5.65;3.20;;;;;;;;;;5052083;28;20217;-85
2023/04/27 11:37:28;;;;;;;7.47;3.17;;;;;;;;;;5040879;28;20222;-85
2023/04/27 11:40:00;;;;;;;4.70;3.55;;;;;;;;;;5047821;28;20209;-85
2023/04/27 11:42:28;;;;;;;3.00;2.65;;;;;;;;;;5044235;28;20206;-86
2023/04/27 11:44:56;;;;;;;3.75;3.00;;;;;;;;;;5051893;28;20202;-87
2023/04/27 11:47:23;;;;;;;6.40;3.40;;;;;;;;;;5043798;28;20242;-87
2023/04/27 11:49:51;;;;;;;5.38;2.78;;;;;;;;;;5045101;28;20207;-87
2023/04/27 11:52:18;;;;;;;6.22;2.90;;;;;;;;;;5048485;28;20214;-86
2023/04/27 11:54:49;;;;;;;4.70;3.20;;;;;;;;;;5035578;28;20233;-86
2023/04/27 11:57:18;;;;;;;3.42;2.90;;;;;;;;;;5034645;28;20230;-86
2023/04/27 11:59:45;;;;;;;4.90;2.95;;;;;;;;;;5042726;28;20297;-86
2023/04/27 12:02:21;;;;;;;3.00;2.72;;;;;;;;;;5043464;28;20211;-87
2023/04/27 12:04:48;;;;;;;4.82;3.10;;;;;;;;;;5046197;28;20234;-86
2023/04/27 12:07:15;;;;;;;5.65;2.95;;;;;;;;;;5039788;28;20261;-85
2023/04/27 12:09:42;;;;;;;6.10;3.35;;;;;;;;;;5043348;28;20213;-84
2023/04/27 12:12:09;;;;;;;3.30;2.83;;;;;;;;;;5033761;28;20225;-86
2023/04/27 12:14:38;;;;;;;4.32;3.20;;;;;;;;;;5038659;28;20206;-87
2023/04/27 12:17:05;;;;;;;5.80;3.20;;;;;;;;;;5029811;28;20696;-85
2023/04/27 12:19:32;;;;;;;4.05;3.20;;;;;;;;;;5028937;28;20289;-86
2023/04/27 12:21:59;;;;;;;6.03;3.20;;;;;;;;;;5029243;28;20234;-87
2023/04/27 12:24:26;;;;;;;4.05;2.90;;;;;;;;;;5030045;28;20285;-88
2023/04/27 12:26:53;;;;;;;4.20;2.83;;;;;;;;;;5028788;28;20230;-90
2023/04/27 12:29:21;;;;;;;5.80;3.45;;;;;;;;;;5017105;28;20219;-87
2023/04/27 12:31:49;;;;;;;4.82;3.33;;;;;;;;;;5035181;28;20395;-87
2023/04/27 12:34:18;;;;;;;4.93;3.22;;;;;;;;;;5047580;28;20206;-87
2023/04/27 12:36:45;;;;;;;8.02;3.55;;;;;;;;;;5036811;28;20230;-88
2023/04/27 12:39:14;;;;;;;3.97;2.90;;;;;;;;;;5030465;28;20214;-88
2023/04/27 12:41:41;;;;;;;2.92;2.50;;;;;;;;;;5041734;28;20225;-87
2023/04/27 12:44:08;;;;;;;3.80;3.00;;;;;;;;;;5031038;28;20241;-88
2023/04/27 12:46:35;;;;;;;4.40;3.22;;;;;;;;;;5038324;28;20241;-87
2023/04/27 12:49:05;;;;;;;5.93;2.80;;;;;;;;;;5046096;28;20202;-88
2023/04/27 12:51:32;;;;;;;5.60;2.78;;;;;;;;;;5032161;28;20244;-87
2023/04/27 12:54:00;;;;;;;4.03;2.70;;;;;;;;;;5042770;28;20739;-87
2023/04/27 12:56:27;;;;;;;3.75;2.65;;;;;;;;;;5029223;28;20283;-87
2023/04/27 12:58:54;;;;;;;4.28;2.97;;;;;;;;;;5038940;28;20199;-86
2023/04/27 13:01:23;;;;;;;3.75;2.50;;;;;;;;;;5036238;28;20234;-86
2023/04/27 13:03:52;;;;;;;6.35;3.25;;;;;;;;;;5034910;28;20264;-87
2023/04/27 13:06:21;;;;;;;4.88;2.72;;;;;;;;;;5025944;28;20234;-86
2023/04/27 13:08:49;;;;;;;4.25;2.92;;;;;;;;;;5032433;28;20233;-92
2023/04/27 13:11:16;;;;;;;4.38;2.38;;;;;;;;;;5040113;28;20237;-86
2023/04/27 13:13:44;;;;;;;5.03;2.65;;;;;;;;;;5027402;28;20668;-90
2023/04/27 13:16:11;;;;;;;3.50;2.88;;;;;;;;;;5027520;28;20251;-90
2023/04/27 13:18:39;;;;;;;4.82;2.70;;;;;;;;;;5030197;28;20202;-93
2023/04/27 13:21:06;;;;;;;5.22;2.60;;;;;;;;;;5029826;28;20317;-88
2023/04/27 13:23:35;;;;;;;3.53;2.97;;;;;;;;;;5030663;28;20211;-88
2023/04/27 13:26:02;;;;;;;4.82;2.50;;;;;;;;;;5030376;28;20234;-87
2023/04/27 13:28:29;;;;;;;4.93;2.88;;;;;;;;;;5034625;28;20231;-88
2023/04/27 13:30:56;;;;;;;2.97;2.58;;;;;;;;;;5040690;28;20226;-88
2023/04/27 13:33:23;;;;;;;5.25;2.65;;;;;;;;;;5037769;28;20211;-88
2023/04/27 13:35:50;;;;;;;3.45;2.33;;;;;;;;;;5040497;28;20234;-89
2023/04/27 13:38:17;;;;;;;4.50;2.53;;;;;;;;;;5034469;28;20202;-89
2023/04/27 13:40:46;;;;;;;3.25;2.35;;;;;;;;;;5034597;28;20230;-89
2023/04/27 13:43:13;;;;;;;3.95;2.22;;;;;;;;;;5034561;28;20203;-89
2023/04/27 13:45:41;;;;;;;2.80;2.50;;;;;;;;;;5041928;28;20227;-89
2023/04/27 13:48:08;;;;;;;3.67;2.88;;;;;;;;;;5040336;28;20237;-89
2023/04/27 13:50:35;;;;;;;6.68;2.60;;;;;;;;;;5035288;28;20230;-89
2023/04/27 13:53:02;;;;;;;4.68;3.05;;;;;;;;;;5034710;28;20207;-88
2023/04/27 13:55:29;;;;;;;3.88;2.33;;;;;;;;;;5044478;28;20245;-88
2023/04/27 13:57:58;;;;;;;2.80;2.20;;;;;;;;;;5041002;28;20218;-88
2023/04/27 14:00:27;;;;;;;4.20;2.30;;;;;;;;;;5042791;28;20249;-90
2023/04/27 14:02:54;;;;;;;2.53;2.13;;;;;;;;;;5027373;28;20649;-90
2023/04/27 14:05:21;;;;;;;5.70;2.30;;;;;;;;;;5041125;28;20235;-89
2023/04/27 14:07:48;;;;;;;2.55;2.10;;;;;;;;;;5040050;28;20229;-88
2023/04/27 14:10:16;;;;;;;5.25;2.35;;;;;;;;;;5033870;28;20738;-89
2023/04/27 14:12:43;;;;;;;3.42;2.28;;;;;;;;;;5042631;28;20628;-88
2023/04/27 14:15:12;;;;;;;3.10;2.40;;;;;;;;;;5035955;28;20586;-87
2023/04/27 14:17:39;;;;;;;2.85;1.98;;;;;;;;;;5025273;28;21035;-88
2023/04/27 14:20:07;;;;;;;8.13;3.08;;;;;;;;;;5033381;28;20245;-87
2023/04/27 14:22:34;;;;;;;4.85;1.90;;;;;;;;;;5033742;28;20213;-87
2023/04/27 14:25:01;;;;;;;2.88;2.20;;;;;;;;;;5032474;28;20751;-88
2023/04/27 14:27:29;;;;;;;5.55;2.20;;;;;;;;;;5033237;28;20237;-88
2023/04/27 14:29:56;;;;;;;3.92;2.20;;;;;;;;;;5039570;28;20224;-88
2023/04/27 14:32:25;;;;;;;6.95;2.50;;;;;;;;;;5034832;28;20210;-87
2023/04/27 14:34:52;;;;;;;4.28;2.20;;;;;;;;;;5030620;28;20701;-87
2023/04/27 14:37:19;;;;;;;2.70;2.42;;;;;;;;;;5033100;28;20232;-88
2023/04/27 14:39:46;;;;;;;3.38;2.13;;;;;;;;;;5045020;28;20202;-86
2023/04/27 14:42:13;;;;;;;4.20;2.30;;;;;;;;;;5052730;28;20213;-87
2023/04/27 14:44:40;;;;;;;5.25;2.33;;;;;;;;;;5044625;28;20210;-87
2023/04/27 14:47:07;;;;;;;3.08;2.53;;;;;;;;;;5044798;28;20735;-86
2023/04/27 14:49:36;;;;;;;3.30;2.17;;;;;;;;;;5045404;28;20202;-88